Yellow Pine, Idaho
Current Conditions -  °F | °C
As of 10:51 AM on Monday 24 Nov 2014 (Local Time) from KMYL Reporting Station
Clear Clear  
Wind Chill: 27°   Ceiling: Unl
Heat Index: 27°   Visibility: 10mi
Dew Point: 23°   Wind: 0mph
Humidity: 85%   Direction: NA
Pressure: 30.36"   Gusts: NA
Location:  44.96°N, 115.49°W
Report Text: KMYL 241751Z AUTO 00000KT 10SM CLR M03/M05 A3036 RMK AO2 SLP326 T10281050 11022 21117 53015 $
Loading
Personal Weather Stations






























Interactive Weather Map New forecast layout! Learn more

10-Day Weather Forecast

Advertisements
Track Severe Weather on mobile